^^
Datos históricos de la estación: Murcia-Puente Tocinos
Diario Informe para Noviembre 29, 2019 Unidades:  Ambas    Ingés   Métrico
Diario Semanal Mensual Anual
  Máxima: Mínima: Promedio:
Temperatura: 71.6 °F /  22 °C 52.5 °F /  11.4 °C 61.5 °F /  16.4 °C
Punto de rocio: 52 °F /  11.1 °C 44.1 °F /  6.7 °C 48.4 °F /  9.1 °C
Humedad: 76% 47.4% 63%
Velocidad viento: 12.5mph /  20.1km/h - 5.1mph /  8.2km/h
Racha viento: 24.2mph /  38.9km/h - -
Viento- - SO
Presión: 30.1 in /  1020.1 hPa 30 in /  1016.8 hPa -
Precipitación: 0 in /  0.0 mm    
 
 
Tabla de datos para Noviembre 29, 2019
Hora Temperatura Punto de rocio Presión Viento Velocidad viento Racha viento Humedad Intensidad lluvia(por hora) Nubes
00:04 58.3 °F /  14.6 °C 46.6 °F /  8.1 °C 30.1in /  1017.7hPa SO 5.9mph /  9.5km/h 9mph /  14.5km/h 65% 0in /  0.0mm
00:09 58.3 °F /  14.6 °C 46.6 °F /  8.1 °C 30.1in /  1017.7hPa SSO 6.2mph /  10km/h 8mph /  12.9km/h 65% 0in /  0.0mm
00:14 58.3 °F /  14.6 °C 46.6 °F /  8.1 °C 30.1in /  1017.7hPa SSO 4.8mph /  7.8km/h 7mph /  11.3km/h 65% 0in /  0.0mm
00:19 58.1 °F /  14.5 °C 46.4 °F /  8 °C 30.1in /  1017.7hPa SO 4.3mph /  6.9km/h 6.9mph /  11.1km/h 65% 0in /  0.0mm
00:24 57.9 °F /  14.4 °C 46.2 °F /  7.9 °C 30.1in /  1017.7hPa SO 4.3mph /  6.9km/h 7.4mph /  11.9km/h 65% 0in /  0.0mm
00:29 57.9 °F /  14.4 °C 46.2 °F /  7.9 °C 30.1in /  1017.7hPa SO 4.3mph /  6.9km/h 8.1mph /  13km/h 65% 0in /  0.0mm
00:34 57.7 °F /  14.3 °C 46.4 °F /  8 °C 30.1in /  1017.7hPa SO 4.6mph /  7.4km/h 8mph /  12.9km/h 66% 0in /  0.0mm
00:39 57.4 °F /  14.1 °C 46.4 °F /  8 °C 30.1in /  1017.7hPa SSO 4.7mph /  7.6km/h 7.4mph /  11.9km/h 66.8% 0in /  0.0mm
00:44 57 °F /  13.9 °C 46.6 °F /  8.1 °C 30.1in /  1017.6hPa Sur 4.7mph /  7.6km/h 7.4mph /  11.9km/h 67.7% 0in /  0.0mm
00:49 56.7 °F /  13.7 °C 46.4 °F /  8 °C 30.1in /  1017.6hPa Sur 4.7mph /  7.6km/h 9.2mph /  14.8km/h 68.4% 0in /  0.0mm
00:54 56.5 °F /  13.6 °C 46.4 °F /  8 °C 30.1in /  1017.6hPa SSO 5.2mph /  8.4km/h 9mph /  14.5km/h 69% 0in /  0.0mm
00:59 56.1 °F /  13.4 °C 46.4 °F /  8 °C 30in /  1017.3hPa SSO 5.4mph /  8.7km/h 9.2mph /  14.8km/h 69.7% 0in /  0.0mm
01:04 55.9 °F /  13.3 °C 46.4 °F /  8 °C 30in /  1017.3hPa SSO 5.8mph /  9.3km/h 9mph /  14.5km/h 70% 0in /  0.0mm
01:09 55.8 °F /  13.2 °C 46.2 °F /  7.9 °C 30in /  1017.3hPa SO 5.9mph /  9.5km/h 8.1mph /  13km/h 70% 0in /  0.0mm
01:14 55.8 °F /  13.2 °C 46 °F /  7.8 °C 30in /  1017.3hPa SSO 5.4mph /  8.7km/h 11.8mph /  19km/h 70% 0in /  0.0mm
01:19 55.8 °F /  13.2 °C 46 °F /  7.8 °C 30in /  1017.3hPa SSO 5.2mph /  8.4km/h 12mph /  19.3km/h 70% 0in /  0.0mm
01:24 55.8 °F /  13.2 °C 46 °F /  7.8 °C 30in /  1017.3hPa SSO 5.2mph /  8.4km/h 9mph /  14.5km/h 70% 0in /  0.0mm
01:29 55.8 °F /  13.2 °C 46 °F /  7.8 °C 30in /  1017.2hPa SO 5.2mph /  8.4km/h 9.2mph /  14.8km/h 70% 0in /  0.0mm
01:34 55.8 °F /  13.2 °C 45.9 °F /  7.7 °C 30in /  1017.2hPa SO 5.2mph /  8.4km/h 9.7mph /  15.6km/h 69.1% 0in /  0.0mm
01:39 55.9 °F /  13.3 °C 45.9 °F /  7.7 °C 30in /  1017.2hPa SO 5.2mph /  8.4km/h 10.4mph /  16.7km/h 69% 0in /  0.0mm
01:44 55.9 °F /  13.3 °C 46 °F /  7.8 °C 30in /  1017.0hPa SO 5.9mph /  9.5km/h 10.4mph /  16.7km/h 69% 0in /  0.0mm
01:49 55.9 °F /  13.3 °C 45.7 °F /  7.6 °C 30in /  1017.0hPa SO 6.2mph /  10km/h 11.5mph /  18.5km/h 68.1% 0in /  0.0mm
01:54 55.9 °F /  13.3 °C 45.7 °F /  7.6 °C 30in /  1017.0hPa SO 6.3mph /  10.2km/h 13mph /  20.9km/h 68.6% 0in /  0.0mm
01:59 55.9 °F /  13.3 °C 45.7 °F /  7.6 °C 30in /  1017.0hPa SO 6.4mph /  10.3km/h 13mph /  20.9km/h 68.5% 0in /  0.0mm
02:04 55.9 °F /  13.3 °C 45.7 °F /  7.6 °C 30in /  1017.0hPa SSO 6.4mph /  10.3km/h 11mph /  17.7km/h 68.3% 0in /  0.0mm
02:09 55.9 °F /  13.3 °C 45.9 °F /  7.7 °C 30in /  1017.1hPa SO 6.4mph /  10.3km/h 10.4mph /  16.7km/h 68.7% 0in /  0.0mm
02:14 55.9 °F /  13.3 °C 45.5 °F /  7.5 °C 30in /  1017.1hPa SO 6.4mph /  10.3km/h 10mph /  16.1km/h 68.1% 0in /  0.0mm
02:19 55.9 °F /  13.3 °C 45.5 °F /  7.5 °C 30in /  1017.1hPa SSO 6.4mph /  10.3km/h 11.8mph /  19km/h 68% 0in /  0.0mm
02:24 55.9 °F /  13.3 °C 45.5 °F /  7.5 °C 30in /  1017.1hPa SSO 6.4mph /  10.3km/h 12.7mph /  20.4km/h 68% 0in /  0.0mm
02:29 55.9 °F /  13.3 °C 45.5 °F /  7.5 °C 30in /  1017.1hPa SSO 6.4mph /  10.3km/h 13mph /  20.9km/h 68% 0in /  0.0mm
02:34 55.9 °F /  13.3 °C 45.5 °F /  7.5 °C 30in /  1017.1hPa SSO 6mph /  9.7km/h 11.5mph /  18.5km/h 68% 0in /  0.0mm
02:39 55.9 °F /  13.3 °C 45.5 °F /  7.5 °C 30in /  1017.1hPa SO 5.9mph /  9.5km/h 12mph /  19.3km/h 68% 0in /  0.0mm
02:44 55.9 °F /  13.3 °C 45.7 °F /  7.6 °C 30in /  1017.1hPa SSO 5.4mph /  8.7km/h 9mph /  14.5km/h 68.3% 0in /  0.0mm
02:49 55.9 °F /  13.3 °C 45.9 °F /  7.7 °C 30in /  1017.1hPa SSO 5.2mph /  8.4km/h 9.7mph /  15.6km/h 69% 0in /  0.0mm
02:54 55.8 °F /  13.2 °C 45.7 °F /  7.6 °C 30in /  1017.2hPa SO 5.3mph /  8.6km/h 10mph /  16.1km/h 69% 0in /  0.0mm
02:59 55.8 °F /  13.2 °C 45.7 °F /  7.6 °C 30in /  1017.2hPa SSO 5.4mph /  8.7km/h 9.2mph /  14.8km/h 69% 0in /  0.0mm
03:04 55.8 °F /  13.2 °C 45.7 °F /  7.6 °C 30in /  1017.2hPa SO 5.8mph /  9.3km/h 9.2mph /  14.8km/h 69.2% 0in /  0.0mm
03:09 55.8 °F /  13.2 °C 46 °F /  7.8 °C 30in /  1017.2hPa SO 5.9mph /  9.5km/h 8.1mph /  13km/h 70% 0in /  0.0mm
03:14 55.8 °F /  13.2 °C 45.7 °F /  7.6 °C 30in /  1017.2hPa SO 5.4mph /  8.7km/h 9.2mph /  14.8km/h 69.1% 0in /  0.0mm
03:19 55.9 °F /  13.3 °C 45.9 °F /  7.7 °C 30in /  1017.2hPa SO 5.2mph /  8.4km/h 9mph /  14.5km/h 69% 0in /  0.0mm
03:24 55.9 °F /  13.3 °C 45.9 °F /  7.7 °C 30in /  1017.4hPa SSO 5.7mph /  9.1km/h 9.2mph /  14.8km/h 69% 0in /  0.0mm
03:29 55.8 °F /  13.2 °C 45.7 °F /  7.6 °C 30in /  1017.4hPa SO 5.9mph /  9.5km/h 9mph /  14.5km/h 69% 0in /  0.0mm
03:34 55.8 °F /  13.2 °C 45.7 °F /  7.6 °C 30in /  1017.4hPa SO 5.4mph /  8.7km/h 9.7mph /  15.6km/h 69% 0in /  0.0mm
03:39 55.8 °F /  13.2 °C 45.7 °F /  7.6 °C 30in /  1017.4hPa SSO 5.2mph /  8.4km/h 10mph /  16.1km/h 69% 0in /  0.0mm
03:44 55.6 °F /  13.1 °C 45.7 °F /  7.6 °C 30in /  1017.2hPa SO 5.2mph /  8.4km/h 9.2mph /  14.8km/h 69% 0in /  0.0mm
03:49 55.8 °F /  13.2 °C 45.5 °F /  7.5 °C 30in /  1017.2hPa SO 5.2mph /  8.4km/h 12.3mph /  19.8km/h 68.4% 0in /  0.0mm
03:54 55.8 °F /  13.2 °C 45.3 °F /  7.4 °C 30in /  1017.2hPa SO 6mph /  9.7km/h 15mph /  24.1km/h 67.6% 0in /  0.0mm
03:59 55.9 °F /  13.3 °C 45 °F /  7.2 °C 30in /  1017.2hPa SSO 6.4mph /  10.3km/h 15mph /  24.1km/h 66.8% 0in /  0.0mm
04:04 56.1 °F /  13.4 °C 44.8 °F /  7.1 °C 30in /  1017.2hPa SSO 6.4mph /  10.3km/h 11.8mph /  19km/h 65.8% 0in /  0.0mm
04:09 56.5 °F /  13.6 °C 44.8 °F /  7.1 °C 30in /  1017.2hPa Sur 6.4mph /  10.3km/h 12mph /  19.3km/h 65% 0in /  0.0mm
04:14 55.9 °F /  13.3 °C 45 °F /  7.2 °C 30in /  1017.0hPa Sur 6.8mph /  10.9km/h 11.2mph /  18km/h 66.3% 0in /  0.0mm
04:19 55.2 °F /  12.9 °C 44.8 °F /  7.1 °C 30in /  1017.0hPa Sur 6.9mph /  11.1km/h 12mph /  19.3km/h 67.9% 0in /  0.0mm
04:24 54.9 °F /  12.7 °C 44.8 °F /  7.1 °C 30in /  1017.0hPa SSO 6.4mph /  10.3km/h 9mph /  14.5km/h 69% 0in /  0.0mm
04:29 54.5 °F /  12.5 °C 45 °F /  7.2 °C 30in /  1016.8hPa SSO 6.2mph /  10km/h 9mph /  14.5km/h 70% 0in /  0.0mm
04:34 54.3 °F /  12.4 °C 44.8 °F /  7.1 °C 30in /  1016.8hPa OSO 5.2mph /  8.3km/h 8mph /  12.9km/h 70% 0in /  0.0mm
04:39 54.3 °F /  12.4 °C 44.4 °F /  6.9 °C 30in /  1016.8hPa Oeste 4.7mph /  7.6km/h 5mph /  8km/h 69.2% 0in /  0.0mm
04:44 54.3 °F /  12.4 °C 44.4 °F /  6.9 °C 30in /  1016.8hPa Oeste 2.7mph /  4.3km/h 5mph /  8km/h 69.1% 0in /  0.0mm
04:49 54.3 °F /  12.4 °C 44.8 °F /  7.1 °C 30in /  1016.8hPa SSE 1.8mph /  2.9km/h 5mph /  8km/h 70% 0in /  0.0mm
04:54 54.3 °F /  12.4 °C 44.8 °F /  7.1 °C 30in /  1016.9hPa Sur 2.6mph /  4.2km/h 5.9mph /  9.5km/h 70% 0in /  0.0mm
04:59 54.5 °F /  12.5 °C 44.6 °F /  7 °C 30in /  1016.9hPa Sur 2.9mph /  4.7km/h 6.9mph /  11.1km/h 69.1% 0in /  0.0mm
05:04 54.7 °F /  12.6 °C 44.4 °F /  6.9 °C 30in /  1016.9hPa Sur 3.9mph /  6.3km/h 7mph /  11.3km/h 68.4% 0in /  0.0mm
05:09 54.7 °F /  12.6 °C 44.4 °F /  6.9 °C 30in /  1017.0hPa Sur 4.3mph /  6.9km/h 7mph /  11.3km/h 68% 0in /  0.0mm
05:14 54.7 °F /  12.6 °C 44.4 °F /  6.9 °C 30in /  1017.0hPa Sur 4.6mph /  7.4km/h 6.9mph /  11.1km/h 68.3% 0in /  0.0mm
05:19 54.5 °F /  12.5 °C 44.4 °F /  6.9 °C 30in /  1017.0hPa Sur 4.7mph /  7.6km/h 7mph /  11.3km/h 69% 0in /  0.0mm
05:24 54.1 °F /  12.3 °C 44.4 °F /  6.9 °C 30in /  1017.1hPa Sur 4.4mph /  7.1km/h 7mph /  11.3km/h 69.2% 0in /  0.0mm
05:29 54.1 °F /  12.3 °C 44.6 °F /  7 °C 30in /  1017.1hPa Sur 4.3mph /  6.9km/h 7mph /  11.3km/h 70% 0in /  0.0mm
05:34 54 °F /  12.2 °C 44.4 °F /  6.9 °C 30in /  1017.1hPa Sur 4.1mph /  6.6km/h 6.2mph /  10km/h 70.2% 0in /  0.0mm
05:39 54 °F /  12.2 °C 44.8 °F /  7.1 °C 30in /  1017.1hPa Sur 4mph /  6.5km/h 8.1mph /  13km/h 71% 0in /  0.0mm
05:44 53.8 °F /  12.1 °C 44.8 °F /  7.1 °C 30in /  1017.1hPa Sur 4.5mph /  7.3km/h 8mph /  12.9km/h 71.5% 0in /  0.0mm
05:49 53.4 °F /  11.9 °C 44.8 °F /  7.1 °C 30in /  1017.1hPa Sur 4.7mph /  7.6km/h 8.1mph /  13km/h 72.3% 0in /  0.0mm
05:54 53.2 °F /  11.8 °C 45 °F /  7.2 °C 30in /  1017.1hPa Sur 4.7mph /  7.6km/h 8.1mph /  13km/h 73.2% 0in /  0.0mm
05:59 53.1 °F /  11.7 °C 45 °F /  7.2 °C 30in /  1017.1hPa Sur 4.7mph /  7.6km/h 8mph /  12.9km/h 74% 0in /  0.0mm
06:04 53.1 °F /  11.7 °C 45.3 °F /  7.4 °C 30in /  1017.1hPa Sur 4.7mph /  7.6km/h 7.4mph /  11.9km/h 74.8% 0in /  0.0mm
06:09 52.9 °F /  11.6 °C 45.1 °F /  7.3 °C 30in /  1017.1hPa Sur 4.7mph /  7.6km/h 8.1mph /  13km/h 75% 0in /  0.0mm
06:14 52.9 °F /  11.6 °C 45.3 °F /  7.4 °C 30in /  1017.1hPa Sur 5.2mph /  8.4km/h 8.1mph /  13km/h 75.9% 0in /  0.0mm
06:19 52.5 °F /  11.4 °C 45.1 °F /  7.3 °C 30in /  1017.1hPa Sur 5.4mph /  8.7km/h 9.2mph /  14.8km/h 76% 0in /  0.0mm
06:24 52.5 °F /  11.4 °C 45.1 °F /  7.3 °C 30in /  1017.1hPa SSO 5.8mph /  9.3km/h 9mph /  14.5km/h 76% 0in /  0.0mm
06:29 52.7 °F /  11.5 °C 45.3 °F /  7.4 °C 30in /  1017.1hPa Sur 5.9mph /  9.5km/h 8mph /  12.9km/h 76% 0in /  0.0mm
06:34 52.9 °F /  11.6 °C 45.3 °F /  7.4 °C 30in /  1017.1hPa SSO 5.4mph /  8.7km/h 8.1mph /  13km/h 75.7% 0in /  0.0mm
06:39 52.9 °F /  11.6 °C 45.1 °F /  7.3 °C 30in /  1017.1hPa SSO 5.2mph /  8.4km/h 8.1mph /  13km/h 75% 0in /  0.0mm
06:44 52.9 °F /  11.6 °C 45.1 °F /  7.3 °C 30in /  1017.1hPa SSO 5.7mph /  9.2km/h 9.2mph /  14.8km/h 75% 0in /  0.0mm
06:49 52.9 °F /  11.6 °C 45 °F /  7.2 °C 30in /  1017.1hPa SSO 5.9mph /  9.5km/h 10.4mph /  16.7km/h 74.2% 0in /  0.0mm
06:54 53.1 °F /  11.7 °C 45 °F /  7.2 °C 30in /  1017.2hPa SSO 6.1mph /  9.8km/h 10mph /  16.1km/h 73.8% 0in /  0.0mm
06:59 53.1 °F /  11.7 °C 44.6 °F /  7 °C 30in /  1017.2hPa Sur 6.2mph /  10km/h 9mph /  14.5km/h 73% 0in /  0.0mm
07:04 53.2 °F /  11.8 °C 44.8 °F /  7.1 °C 30in /  1017.2hPa Sur 6mph /  9.6km/h 8.1mph /  13km/h 73% 0in /  0.0mm
07:09 53.2 °F /  11.8 °C 44.6 °F /  7 °C 30in /  1017.4hPa Sur 5.9mph /  9.5km/h 8.1mph /  13km/h 72.2% 0in /  0.0mm
07:14 53.4 °F /  11.9 °C 44.6 °F /  7 °C 30in /  1017.4hPa SSO 5.9mph /  9.5km/h 9.7mph /  15.6km/h 72% 0in /  0.0mm
07:19 53.4 °F /  11.9 °C 44.6 °F /  7 °C 30in /  1017.4hPa SSO 5.9mph /  9.5km/h 11.2mph /  18km/h 71.9% 0in /  0.0mm
07:24 53.4 °F /  11.9 °C 44.2 °F /  6.8 °C 30.1in /  1017.5hPa SSO 6.3mph /  10.1km/h 11mph /  17.7km/h 71% 0in /  0.0mm
07:29 53.8 °F /  12.1 °C 44.4 °F /  6.9 °C 30.1in /  1017.5hPa SSO 6.4mph /  10.3km/h 11mph /  17.7km/h 70.6% 0in /  0.0mm
07:34 54 °F /  12.2 °C 44.4 °F /  6.9 °C 30.1in /  1017.5hPa SO 6.4mph /  10.3km/h 10mph /  16.1km/h 70% 0in /  0.0mm
07:39 54 °F /  12.2 °C 44.4 °F /  6.9 °C 30.1in /  1017.6hPa SSO 6.4mph /  10.3km/h 9mph /  14.5km/h 70% 0in /  0.0mm
07:44 54 °F /  12.2 °C 44.4 °F /  6.9 °C 30.1in /  1017.6hPa SSO 5.6mph /  9km/h 8.1mph /  13km/h 70% 0in /  0.0mm
07:49 54 °F /  12.2 °C 44.2 °F /  6.8 °C 30.1in /  1017.6hPa SO 5.2mph /  8.4km/h 8.1mph /  13km/h 69.5% 0in /  0.0mm
07:54 54.1 °F /  12.3 °C 44.2 °F /  6.8 °C 30.1in /  1017.9hPa SSO 4.8mph /  7.8km/h 7mph /  11.3km/h 69% 0in /  0.0mm
07:59 54.1 °F /  12.3 °C 44.2 °F /  6.8 °C 30.1in /  1017.9hPa SSO 4.7mph /  7.6km/h 6mph /  9.7km/h 69.1% 0in /  0.0mm
08:04 54.1 °F /  12.3 °C 44.2 °F /  6.8 °C 30.1in /  1017.9hPa Sur 3.9mph /  6.2km/h 6.4mph /  10.3km/h 69.3% 0in /  0.0mm
08:09 54.1 °F /  12.3 °C 44.2 °F /  6.8 °C 30.1in /  1018.0hPa Sur 3.6mph /  5.8km/h 8.5mph /  13.7km/h 69.1% 0in /  0.0mm
08:14 54 °F /  12.2 °C 44.1 °F /  6.7 °C 30.1in /  1018.0hPa Sur 4.7mph /  7.6km/h 9mph /  14.5km/h 69% 0in /  0.0mm
08:19 54 °F /  12.2 °C 44.1 °F /  6.7 °C 30.1in /  1018.0hPa Sur 5.2mph /  8.4km/h 9.2mph /  14.8km/h 69.2% 0in /  0.0mm
08:24 53.8 °F /  12.1 °C 44.2 °F /  6.8 °C 30.1in /  1018.2hPa Sur 5.9mph /  9.5km/h 10.4mph /  16.7km/h 70% 0in /  0.0mm
08:29 53.8 °F /  12.1 °C 44.2 °F /  6.8 °C 30.1in /  1018.2hPa SSO 6.2mph /  10km/h 10mph /  16.1km/h 70% 0in /  0.0mm
08:34 54 °F /  12.2 °C 44.2 °F /  6.8 °C 30.1in /  1018.2hPa SSO 6mph /  9.6km/h 8.1mph /  13km/h 70% 0in /  0.0mm
08:39 54 °F /  12.2 °C 44.2 °F /  6.8 °C 30.1in /  1018.3hPa SSO 5.9mph /  9.5km/h 8.1mph /  13km/h 69.3% 0in /  0.0mm
08:44 54.3 °F /  12.4 °C 44.2 °F /  6.8 °C 30.1in /  1018.3hPa SSO 5mph /  8.1km/h 10.4mph /  16.7km/h 68.7% 0in /  0.0mm
08:49 54.7 °F /  12.6 °C 44.4 °F /  6.9 °C 30.1in /  1018.3hPa SO 4.7mph /  7.6km/h 10mph /  16.1km/h 68% 0in /  0.0mm
08:54 54.9 °F /  12.7 °C 44.4 °F /  6.9 °C 30.1in /  1018.3hPa SSO 5.2mph /  8.4km/h 9mph /  14.5km/h 67.8% 0in /  0.0mm
08:59 55 °F /  12.8 °C 44.4 °F /  6.9 °C 30.1in /  1018.3hPa SO 5.4mph /  8.7km/h 9.2mph /  14.8km/h 67.1% 0in /  0.0mm
09:04 55.2 °F /  12.9 °C 44.4 °F /  6.9 °C 30.1in /  1018.3hPa SO 5.4mph /  8.7km/h 12.7mph /  20.4km/h 67% 0in /  0.0mm
09:09 55.2 °F /  12.9 °C 44.4 °F /  6.9 °C 30.1in /  1018.6hPa SO 5.4mph /  8.7km/h 13mph /  20.9km/h 67% 0in /  0.0mm
09:14 55.6 °F /  13.1 °C 44.8 °F /  7.1 °C 30.1in /  1018.6hPa SSO 6.8mph /  10.9km/h 12mph /  19.3km/h 67% 0in /  0.0mm
09:19 55.9 °F /  13.3 °C 45.1 °F /  7.3 °C 30.1in /  1018.6hPa SSO 7.4mph /  11.9km/h 10mph /  16.1km/h 67% 0in /  0.0mm
09:24 56.5 °F /  13.6 °C 45.3 °F /  7.4 °C 30.1in /  1018.6hPa SSO 6mph /  9.6km/h 9mph /  14.5km/h 66.3% 0in /  0.0mm
09:29 57 °F /  13.9 °C 45.7 °F /  7.6 °C 30.1in /  1018.6hPa SO 5.4mph /  8.7km/h 8.1mph /  13km/h 65.7% 0in /  0.0mm
09:34 57.7 °F /  14.3 °C 45.9 °F /  7.7 °C 30.1in /  1018.6hPa SO 4.2mph /  6.7km/h 9.2mph /  14.8km/h 64.4% 0in /  0.0mm
09:39 58.5 °F /  14.7 °C 45.9 °F /  7.7 °C 30.1in /  1018.6hPa SO 3.6mph /  5.8km/h 10.4mph /  16.7km/h 63.1% 0in /  0.0mm
09:44 58.6 °F /  14.8 °C 45.9 °F /  7.7 °C 30.1in /  1018.6hPa SO 4.9mph /  7.9km/h 10.4mph /  16.7km/h 62.5% 0in /  0.0mm
09:49 59 °F /  15 °C 46 °F /  7.8 °C 30.1in /  1018.6hPa SO 5.4mph /  8.7km/h 10.4mph /  16.7km/h 62% 0in /  0.0mm
09:54 59.4 °F /  15.2 °C 46.2 °F /  7.9 °C 30.1in /  1018.7hPa SO 5.4mph /  8.7km/h 10.7mph /  17.2km/h 61.7% 0in /  0.0mm
09:59 59.9 °F /  15.5 °C 46.4 °F /  8 °C 30.1in /  1018.7hPa SO 5.4mph /  8.7km/h 14mph /  22.5km/h 61% 0in /  0.0mm
10:04 60.4 °F /  15.8 °C 46.6 °F /  8.1 °C 30.1in /  1018.7hPa SSO 6.5mph /  10.5km/h 14mph /  22.5km/h 60.3% 0in /  0.0mm
10:09 60.6 °F /  15.9 °C 46.8 °F /  8.2 °C 30.1in /  1018.8hPa SSO 6.9mph /  11.1km/h 14mph /  22.5km/h 60% 0in /  0.0mm
10:14 61 °F /  16.1 °C 46.9 °F /  8.3 °C 30.1in /  1018.8hPa Sur 6.5mph /  10.5km/h 12mph /  19.3km/h 60% 0in /  0.0mm
10:19 61.3 °F /  16.3 °C 47.1 °F /  8.4 °C 30.1in /  1018.8hPa Sur 6.4mph /  10.3km/h 10.7mph /  17.2km/h 59.5% 0in /  0.0mm
10:24 61.9 °F /  16.6 °C 47.3 °F /  8.5 °C 30.1in /  1018.9hPa Sur 5.7mph /  9.2km/h 11mph /  17.7km/h 59% 0in /  0.0mm
10:29 62.1 °F /  16.7 °C 47.7 °F /  8.7 °C 30.1in /  1018.9hPa Sur 5.4mph /  8.7km/h 11.5mph /  18.5km/h 59% 0in /  0.0mm
10:34 62.6 °F /  17 °C 48 °F /  8.9 °C 30.1in /  1018.9hPa Sur 6mph /  9.6km/h 12mph /  19.3km/h 58.9% 0in /  0.0mm
10:39 63 °F /  17.2 °C 47.8 °F /  8.8 °C 30.1in /  1019.0hPa Sur 6.2mph /  10km/h 10.4mph /  16.7km/h 58% 0in /  0.0mm
10:44 63.1 °F /  17.3 °C 48 °F /  8.9 °C 30.1in /  1019.0hPa Sur 6mph /  9.6km/h 10.4mph /  16.7km/h 57.6% 0in /  0.0mm
10:49 63.7 °F /  17.6 °C 48 °F /  8.9 °C 30.1in /  1019.0hPa SSO 5.9mph /  9.5km/h 11.8mph /  19km/h 56.8% 0in /  0.0mm
10:54 64 °F /  17.8 °C 48 °F /  8.9 °C 30.1in /  1019.1hPa Sur 6.3mph /  10.1km/h 12.7mph /  20.4km/h 56% 0in /  0.0mm
10:59 64.4 °F /  18 °C 48.4 °F /  9.1 °C 30.1in /  1019.1hPa Sur 6.4mph /  10.3km/h 13mph /  20.9km/h 55.8% 0in /  0.0mm
11:04 64.8 °F /  18.2 °C 48.6 °F /  9.2 °C 30.1in /  1019.1hPa SSO 6.8mph /  10.9km/h 12.7mph /  20.4km/h 55.7% 0in /  0.0mm
11:09 64.9 °F /  18.3 °C 48.6 °F /  9.2 °C 30.1in /  1019.1hPa SSO 6.9mph /  11.1km/h 13.8mph /  22.2km/h 55.3% 0in /  0.0mm
11:14 65.1 °F /  18.4 °C 48.6 °F /  9.2 °C 30.1in /  1019.1hPa SSO 6.9mph /  11.1km/h 14mph /  22.5km/h 55% 0in /  0.0mm
11:19 65.3 °F /  18.5 °C 48.7 °F /  9.3 °C 30.1in /  1019.1hPa SO 6.9mph /  11.1km/h 13mph /  20.9km/h 54.9% 0in /  0.0mm
11:24 65.7 °F /  18.7 °C 48.9 °F /  9.4 °C 30.1in /  1019.1hPa SSO 6.9mph /  11.1km/h 13.8mph /  22.2km/h 54.6% 0in /  0.0mm
11:29 65.8 °F /  18.8 °C 48.9 °F /  9.4 °C 30.1in /  1019.0hPa SSO 6.9mph /  11.1km/h 15.2mph /  24.5km/h 54.4% 0in /  0.0mm
11:34 66 °F /  18.9 °C 48.9 °F /  9.4 °C 30.1in /  1019.0hPa SSO 7.4mph /  11.9km/h 15mph /  24.1km/h 54% 0in /  0.0mm
11:39 66.4 °F /  19.1 °C 49.1 °F /  9.5 °C 30.1in /  1019.0hPa Sur 7.6mph /  12.2km/h 15mph /  24.1km/h 54% 0in /  0.0mm
11:44 66.6 °F /  19.2 °C 49.1 °F /  9.5 °C 30.1in /  1018.9hPa SSO 7.1mph /  11.4km/h 14mph /  22.5km/h 53.4% 0in /  0.0mm
11:49 66.6 °F /  19.2 °C 48.9 °F /  9.4 °C 30.1in /  1018.9hPa SSO 6.9mph /  11.1km/h 14mph /  22.5km/h 53% 0in /  0.0mm
11:54 66.7 °F /  19.3 °C 48.9 °F /  9.4 °C 30.1in /  1018.9hPa SO 7.8mph /  12.5km/h 13mph /  20.9km/h 52.8% 0in /  0.0mm
11:59 66.9 °F /  19.4 °C 48.9 °F /  9.4 °C 30.1in /  1018.9hPa SO 8.1mph /  13km/h 12mph /  19.3km/h 52.4% 0in /  0.0mm
12:04 67.1 °F /  19.5 °C 48.9 °F /  9.4 °C 30.1in /  1018.9hPa SO 6.7mph /  10.8km/h 12mph /  19.3km/h 52% 0in /  0.0mm
12:09 67.5 °F /  19.7 °C 48.9 °F /  9.4 °C 30.1in /  1018.9hPa SO 6.2mph /  10km/h 12.7mph /  20.4km/h 51.4% 0in /  0.0mm
12:14 67.6 °F /  19.8 °C 49.1 °F /  9.5 °C 30.1in /  1018.7hPa SO 6.3mph /  10.2km/h 13mph /  20.9km/h 51.3% 0in /  0.0mm
12:19 68 °F /  20 °C 49.3 °F /  9.6 °C 30.1in /  1018.7hPa SSO 6.4mph /  10.3km/h 11.5mph /  18.5km/h 51.2% 0in /  0.0mm
12:24 68.2 °F /  20.1 °C 49.5 °F /  9.7 °C 30.1in /  1018.7hPa SSO 6mph /  9.7km/h 12mph /  19.3km/h 51% 0in /  0.0mm
12:29 68.4 °F /  20.2 °C 49.5 °F /  9.7 °C 30.1in /  1018.6hPa SO 5.9mph /  9.5km/h 9.2mph /  14.8km/h 50.8% 0in /  0.0mm
12:34 68.5 °F /  20.3 °C 49.1 °F /  9.5 °C 30.1in /  1018.6hPa SO 5.4mph /  8.7km/h 9mph /  14.5km/h 50% 0in /  0.0mm
12:39 68.5 °F /  20.3 °C 49.3 °F /  9.6 °C 30.1in /  1018.6hPa SO 5.2mph /  8.4km/h 10.4mph /  16.7km/h 50% 0in /  0.0mm
12:44 68.7 °F /  20.4 °C 49.3 °F /  9.6 °C 30.1in /  1018.5hPa SSO 5.3mph /  8.6km/h 10.4mph /  16.7km/h 50% 0in /  0.0mm
12:49 69.1 °F /  20.6 °C 49.3 °F /  9.6 °C 30.1in /  1018.5hPa SO 5.4mph /  8.7km/h 11.5mph /  18.5km/h 49.3% 0in /  0.0mm
12:54 69.3 °F /  20.7 °C 49.3 °F /  9.6 °C 30.1in /  1018.5hPa SSO 5.8mph /  9.3km/h 12mph /  19.3km/h 49.2% 0in /  0.0mm
12:59 69.3 °F /  20.7 °C 49.3 °F /  9.6 °C 30.1in /  1018.4hPa SO 5.9mph /  9.5km/h 10mph /  16.1km/h 49% 0in /  0.0mm
13:04 69.4 °F /  20.8 °C 49.3 °F /  9.6 °C 30.1in /  1018.4hPa OSO 4.5mph /  7.2km/h 8.5mph /  13.7km/h 48.5% 0in /  0.0mm
13:09 69.8 °F /  21 °C 49.3 °F /  9.6 °C 30.1in /  1018.4hPa SSO 4mph /  6.5km/h 9mph /  14.5km/h 48.1% 0in /  0.0mm
13:14 70.2 °F /  21.2 °C 49.1 °F /  9.5 °C 30.1in /  1018.3hPa Sur 4.2mph /  6.8km/h 9mph /  14.5km/h 47.4% 0in /  0.0mm
13:19 70.3 °F /  21.3 °C 49.5 °F /  9.7 °C 30.1in /  1018.3hPa SO 4.3mph /  6.9km/h 8.5mph /  13.7km/h 47.7% 0in /  0.0mm
13:24 70.5 °F /  21.4 °C 50 °F /  10 °C 30.1in /  1018.3hPa OSO 4.6mph /  7.4km/h 12.7mph /  20.4km/h 48.2% 0in /  0.0mm
13:29 70.5 °F /  21.4 °C 50 °F /  10 °C 30.1in /  1018.3hPa Oeste 4.7mph /  7.6km/h 13mph /  20.9km/h 48.2% 0in /  0.0mm
13:34 70.9 °F /  21.6 °C 50.2 °F /  10.1 °C 30.1in /  1018.3hPa OSO 5.5mph /  8.9km/h 13.8mph /  22.2km/h 48% 0in /  0.0mm
13:39 70.9 °F /  21.6 °C 50.4 °F /  10.2 °C 30.1in /  1018.3hPa Oeste 5.9mph /  9.5km/h 15mph /  24.1km/h 48.4% 0in /  0.0mm
13:44 71.1 °F /  21.7 °C 50.9 °F /  10.5 °C 30.1in /  1018.1hPa OSO 7.1mph /  11.4km/h 15mph /  24.1km/h 49% 0in /  0.0mm
13:49 71.1 °F /  21.7 °C 50.7 °F /  10.4 °C 30.1in /  1018.1hPa Oeste 7.6mph /  12.2km/h 15mph /  24.1km/h 48.7% 0in /  0.0mm
13:54 71.1 °F /  21.7 °C 50.7 °F /  10.4 °C 30.1in /  1018.1hPa Oeste 7.6mph /  12.2km/h 14mph /  22.5km/h 48.5% 0in /  0.0mm
13:59 71.1 °F /  21.7 °C 50.9 °F /  10.5 °C 30.1in /  1018.0hPa Oeste 7.6mph /  12.2km/h 24.2mph /  38.9km/h 49% 0in /  0.0mm
14:04 70.9 °F /  21.6 °C 50.7 °F /  10.4 °C 30.1in /  1018.0hPa Oeste 8.8mph /  14.1km/h 24mph /  38.6km/h 49% 0in /  0.0mm
14:09 70.9 °F /  21.6 °C 50.9 °F /  10.5 °C 30.1in /  1018.0hPa ONO 9.2mph /  14.8km/h 21.9mph /  35.2km/h 49% 0in /  0.0mm
14:14 70.9 °F /  21.6 °C 50.7 °F /  10.4 °C 30.1in /  1017.9hPa ONO 9.6mph /  15.4km/h 22mph /  35.4km/h 49% 0in /  0.0mm
14:19 70.9 °F /  21.6 °C 50.7 °F /  10.4 °C 30.1in /  1017.9hPa ONO 9.7mph /  15.6km/h 23.5mph /  37.8km/h 49% 0in /  0.0mm
14:24 70.9 °F /  21.6 °C 50.9 °F /  10.5 °C 30.1in /  1017.9hPa ONO 10.7mph /  17.3km/h 23mph /  37km/h 49.2% 0in /  0.0mm
14:29 70.9 °F /  21.6 °C 51.1 °F /  10.6 °C 30.1in /  1017.9hPa ONO 11.2mph /  18km/h 19.7mph /  31.7km/h 49.6% 0in /  0.0mm
14:34 70.9 °F /  21.6 °C 51.3 °F /  10.7 °C 30.1in /  1017.9hPa ONO 12.1mph /  19.5km/h 20mph /  32.2km/h 50% 0in /  0.0mm
14:39 70.7 °F /  21.5 °C 51.1 °F /  10.6 °C 30.1in /  1017.9hPa ONO 12.5mph /  20.1km/h 19.6mph /  31.5km/h 50% 0in /  0.0mm
14:44 70.5 °F /  21.4 °C 51.1 °F /  10.6 °C 30.1in /  1017.8hPa Oeste 10.9mph /  17.5km/h 20mph /  32.2km/h 50% 0in /  0.0mm
14:49 70.5 °F /  21.4 °C 51.1 °F /  10.6 °C 30.1in /  1017.8hPa ONO 10.2mph /  16.4km/h 18.4mph /  29.6km/h 50% 0in /  0.0mm
14:54 70.7 °F /  21.5 °C 51.3 °F /  10.7 °C 30.1in /  1017.8hPa Oeste 9.9mph /  15.9km/h 18mph /  29km/h 50.3% 0in /  0.0mm
14:59 71.1 °F /  21.7 °C 51.4 °F /  10.8 °C 30.1in /  1017.6hPa Oeste 9.7mph /  15.6km/h 16.1mph /  25.9km/h 50% 0in /  0.0mm
15:04 71.2 °F /  21.8 °C 51.6 °F /  10.9 °C 30.1in /  1017.6hPa ONO 8.9mph /  14.4km/h 16.1mph /  25.9km/h 50% 0in /  0.0mm
15:09 71.6 °F /  22 °C 51.4 °F /  10.8 °C 30.1in /  1017.6hPa ONO 8.7mph /  14km/h 16.1mph /  25.9km/h 49.3% 0in /  0.0mm
15:14 71.6 °F /  22 °C 51.4 °F /  10.8 °C 30.1in /  1017.6hPa ONO 9.4mph /  15.1km/h 16mph /  25.7km/h 49% 0in /  0.0mm
15:19 71.4 °F /  21.9 °C 51.3 °F /  10.7 °C 30.1in /  1017.6hPa ONO 9.7mph /  15.6km/h 20.7mph /  33.3km/h 49% 0in /  0.0mm
15:24 71.2 °F /  21.8 °C 51.1 °F /  10.6 °C 30.1in /  1017.6hPa ONO 10.4mph /  16.7km/h 21mph /  33.8km/h 49.2% 0in /  0.0mm
15:29 70.9 °F /  21.6 °C 51.3 °F /  10.7 °C 30.1in /  1017.6hPa ONO 10.7mph /  17.2km/h 19.2mph /  30.9km/h 49.8% 0in /  0.0mm
15:34 70.7 °F /  21.5 °C 51.1 °F /  10.6 °C 30.1in /  1017.6hPa Oeste 11.4mph /  18.4km/h 20mph /  32.2km/h 50% 0in /  0.0mm
15:39 70.5 °F /  21.4 °C 51.1 °F /  10.6 °C 30.1in /  1017.6hPa ONO 11.8mph /  19km/h 17mph /  27.4km/h 50% 0in /  0.0mm
15:44 70.5 °F /  21.4 °C 51.3 °F /  10.7 °C 30.1in /  1017.6hPa ONO 9.6mph /  15.5km/h 16.1mph /  25.9km/h 50.7% 0in /  0.0mm
15:49 70.5 °F /  21.4 °C 51.4 °F /  10.8 °C 30.1in /  1017.6hPa Oeste 8.7mph /  14km/h 13mph /  20.9km/h 51% 0in /  0.0mm
15:54 70.5 °F /  21.4 °C 51.4 °F /  10.8 °C 30.1in /  1017.6hPa ONO 7.5mph /  12km/h 13mph /  20.9km/h 51% 0in /  0.0mm
15:59 70.3 °F /  21.3 °C 51.4 °F /  10.8 °C 30.1in /  1017.6hPa ONO 6.9mph /  11.1km/h 13mph /  20.9km/h 51% 0in /  0.0mm
16:04 70.5 °F /  21.4 °C 51.4 °F /  10.8 °C 30.1in /  1017.6hPa ONO 6.4mph /  10.3km/h 10.4mph /  16.7km/h 51% 0in /  0.0mm
16:09 70.5 °F /  21.4 °C 51.4 °F /  10.8 °C 30.1in /  1017.6hPa Oeste 6.2mph /  10km/h 10.7mph /  17.2km/h 51% 0in /  0.0mm
16:14 70.5 °F /  21.4 °C 51.4 °F /  10.8 °C 30.1in /  1017.6hPa ONO 6.3mph /  10.2km/h 11.5mph /  18.5km/h 51% 0in /  0.0mm
16:19 70.5 °F /  21.4 °C 51.4 °F /  10.8 °C 30.1in /  1017.6hPa ONO 6.4mph /  10.3km/h 13.8mph /  22.2km/h 51% 0in /  0.0mm
16:24 70.3 °F /  21.3 °C 51.3 °F /  10.7 °C 30.1in /  1017.8hPa ONO 6.8mph /  10.9km/h 14mph /  22.5km/h 51% 0in /  0.0mm
16:29 70.3 °F /  21.3 °C 51.6 °F /  10.9 °C 30.1in /  1017.8hPa ONO 6.9mph /  11.1km/h 10mph /  16.1km/h 51.4% 0in /  0.0mm
16:34 70.3 °F /  21.3 °C 51.3 °F /  10.7 °C 30.1in /  1017.8hPa ONO 6.2mph /  10km/h 12.7mph /  20.4km/h 51% 0in /  0.0mm
16:39 70.3 °F /  21.3 °C 51.3 °F /  10.7 °C 30.1in /  1018.0hPa ONO 5.9mph /  9.5km/h 13mph /  20.9km/h 51% 0in /  0.0mm
16:44 70.3 °F /  21.3 °C 51.3 °F /  10.7 °C 30.1in /  1018.0hPa ONO 6.6mph /  10.6km/h 13mph /  20.9km/h 51% 0in /  0.0mm
16:49 70.2 °F /  21.2 °C 51.3 °F /  10.7 °C 30.1in /  1018.0hPa ONO 6.9mph /  11.1km/h 12mph /  19.3km/h 51% 0in /  0.0mm
16:54 70.2 °F /  21.2 °C 51.3 °F /  10.7 °C 30.1in /  1018.1hPa ONO 6.5mph /  10.5km/h 11.5mph /  18.5km/h 51% 0in /  0.0mm
16:59 70 °F /  21.1 °C 51.1 °F /  10.6 °C 30.1in /  1018.1hPa ONO 6.4mph /  10.3km/h 12mph /  19.3km/h 51% 0in /  0.0mm
17:04 69.6 °F /  20.9 °C 51.1 °F /  10.6 °C 30.1in /  1018.1hPa ONO 6.8mph /  10.9km/h 12mph /  19.3km/h 51.7% 0in /  0.0mm
17:09 69.6 °F /  20.9 °C 51.1 °F /  10.6 °C 30.1in /  1018.2hPa ONO 6.9mph /  11.1km/h 12mph /  19.3km/h 52% 0in /  0.0mm
17:14 69.4 °F /  20.8 °C 51.1 °F /  10.6 °C 30.1in /  1018.2hPa ONO 6.4mph /  10.3km/h 10mph /  16.1km/h 52.2% 0in /  0.0mm
17:19 69.3 °F /  20.7 °C 51.1 °F /  10.6 °C 30.1in /  1018.2hPa ONO 6.2mph /  10km/h 9.7mph /  15.6km/h 52.3% 0in /  0.0mm
17:24 69.3 °F /  20.7 °C 51.4 °F /  10.8 °C 30.1in /  1018.3hPa ONO 5.7mph /  9.1km/h 10.4mph /  16.7km/h 53% 0in /  0.0mm
17:29 69.1 °F /  20.6 °C 51.3 °F /  10.7 °C 30.1in /  1018.3hPa ONO 5.4mph /  8.7km/h 10mph /  16.1km/h 53% 0in /  0.0mm
17:34 69.1 °F /  20.6 °C 51.1 °F /  10.6 °C 30.1in /  1018.3hPa NO 5.4mph /  8.7km/h 9mph /  14.5km/h 53% 0in /  0.0mm
17:39 68.7 °F /  20.4 °C 51.3 °F /  10.7 °C 30.1in /  1018.3hPa NO 5.4mph /  8.7km/h 7mph /  11.3km/h 53.7% 0in /  0.0mm
17:44 68.5 °F /  20.3 °C 51.1 °F /  10.6 °C 30.1in /  1018.3hPa NNO 3.7mph /  5.9km/h 5mph /  8km/h 54% 0in /  0.0mm
17:49 68.4 °F /  20.2 °C 51.4 °F /  10.8 °C 30.1in /  1018.3hPa NO 2.9mph /  4.7km/h 5.2mph /  8.4km/h 54.9% 0in /  0.0mm
17:54 68 °F /  20 °C 51.3 °F /  10.7 °C 30.1in /  1018.4hPa NO 2.5mph /  4.1km/h 5mph /  8km/h 55% 0in /  0.0mm
17:59 67.8 °F /  19.9 °C 51.1 °F /  10.6 °C 30.1in /  1018.4hPa ONO 2.4mph /  3.9km/h 5mph /  8km/h 55% 0in /  0.0mm
18:04 67.6 °F /  19.8 °C 51.4 °F /  10.8 °C 30.1in /  1018.4hPa NO 2.8mph /  4.5km/h 5mph /  8km/h 55.9% 0in /  0.0mm
18:09 67.6 °F /  19.8 °C 51.3 °F /  10.7 °C 30.1in /  1018.6hPa NNO 2.9mph /  4.7km/h 5mph /  8km/h 56% 0in /  0.0mm
18:14 67.5 °F /  19.7 °C 51.3 °F /  10.7 °C 30.1in /  1018.6hPa NO 2.5mph /  4.1km/h 5mph /  8km/h 56.3% 0in /  0.0mm
18:19 67.3 °F /  19.6 °C 51.4 °F /  10.8 °C 30.1in /  1018.6hPa NO 2.4mph /  3.9km/h 4mph /  6.4km/h 57% 0in /  0.0mm
18:24 66.9 °F /  19.4 °C 51.3 °F /  10.7 °C 30.1in /  1018.7hPa NO 2mph /  3.2km/h 4mph /  6.4km/h 57.1% 0in /  0.0mm
18:29 66.7 °F /  19.3 °C 51.4 °F /  10.8 °C 30.1in /  1018.7hPa NO 1.8mph /  2.9km/h   58% 0in /  0.0mm
18:34 66.6 °F /  19.2 °C 51.6 °F /  10.9 °C 30.1in /  1018.7hPa NO 0.5mph /  0.8km/h   58.5% 0in /  0.0mm
18:39 66.6 °F /  19.2 °C 51.6 °F /  10.9 °C 30.1in /  1018.9hPa Calm     58.9% 0in /  0.0mm
18:44 66.4 °F /  19.1 °C 51.6 °F /  10.9 °C 30.1in /  1018.9hPa Calm     59% 0in /  0.0mm
18:49 66.4 °F /  19.1 °C 51.6 °F /  10.9 °C 30.1in /  1018.9hPa Calm   2.9mph /  4.7km/h 59% 0in /  0.0mm
18:54 66.2 °F /  19 °C 51.4 °F /  10.8 °C 30.1in /  1019.0hPa Calm   4.6mph /  7.4km/h 59% 0in /  0.0mm
18:59 66 °F /  18.9 °C 51.3 °F /  10.7 °C 30.1in /  1019.0hPa Calm   5mph /  8km/h 59% 0in /  0.0mm
19:04 66 °F /  18.9 °C 51.4 °F /  10.8 °C 30.1in /  1019.0hPa SSO 1.7mph /  2.8km/h 4.6mph /  7.4km/h 59.6% 0in /  0.0mm
19:09 65.8 °F /  18.8 °C 51.8 °F /  11 °C 30.1in /  1019.0hPa SSE 2.4mph /  3.9km/h 5mph /  8km/h 60.3% 0in /  0.0mm
19:14 65.7 °F /  18.7 °C 51.8 °F /  11 °C 30.1in /  1019.0hPa SSE 2.7mph /  4.4km/h 5mph /  8km/h 61% 0in /  0.0mm
19:19 65.7 °F /  18.7 °C 51.8 °F /  11 °C 30.1in /  1019.0hPa SSE 2.9mph /  4.7km/h 5mph /  8km/h 61% 0in /  0.0mm
19:24 65.5 °F /  18.6 °C 52 °F /  11.1 °C 30.1in /  1019.1hPa SSE 2.2mph /  3.6km/h 3mph /  4.8km/h 61.7% 0in /  0.0mm
19:29 65.1 °F /  18.4 °C 51.8 °F /  11 °C 30.1in /  1019.1hPa SSE 2mph /  3.2km/h 2mph /  3.2km/h 62% 0in /  0.0mm
19:34 64.9 °F /  18.3 °C 51.8 °F /  11 °C 30.1in /  1019.1hPa SSE 0.6mph /  0.9km/h 3.5mph /  5.6km/h 62% 0in /  0.0mm
19:39 64.9 °F /  18.3 °C 52 °F /  11.1 °C 30.1in /  1019.2hPa Calm   3.5mph /  5.6km/h 62.8% 0in /  0.0mm
19:44 64.8 °F /  18.2 °C 52 °F /  11.1 °C 30.1in /  1019.2hPa SSE 1mph /  1.6km/h 2mph /  3.2km/h 63% 0in /  0.0mm
19:49 64.6 °F /  18.1 °C 51.6 °F /  10.9 °C 30.1in /  1019.2hPa SSE 1.4mph /  2.2km/h   63% 0in /  0.0mm
19:54 64.2 °F /  17.9 °C 51.8 °F /  11 °C 30.1in /  1019.3hPa SSE 0.4mph /  0.7km/h   63.9% 0in /  0.0mm
19:59 64 °F /  17.8 °C 51.8 °F /  11 °C 30.1in /  1019.3hPa Calm     64.3% 0in /  0.0mm
20:04 63.9 °F /  17.7 °C 51.8 °F /  11 °C 30.1in /  1019.3hPa Calm     65% 0in /  0.0mm
20:09 63.7 °F /  17.6 °C 51.6 °F /  10.9 °C 30.1in /  1019.4hPa Calm     65% 0in /  0.0mm
20:14 63.3 °F /  17.4 °C 51.6 °F /  10.9 °C 30.1in /  1019.4hPa Calm     65.7% 0in /  0.0mm
20:19 63.1 °F /  17.3 °C 51.6 °F /  10.9 °C 30.1in /  1019.4hPa Calm     66% 0in /  0.0mm
20:24 63 °F /  17.2 °C 51.8 °F /  11 °C 30.1in /  1019.5hPa Calm     66.7% 0in /  0.0mm
20:29 62.8 °F /  17.1 °C 51.8 °F /  11 °C 30.1in /  1019.5hPa Calm     67% 0in /  0.0mm
20:34 62.6 °F /  17 °C 51.8 °F /  11 °C 30.1in /  1019.5hPa Calm     67.8% 0in /  0.0mm
20:39 62.2 °F /  16.8 °C 51.6 °F /  10.9 °C 30.1in /  1019.5hPa Calm     68.3% 0in /  0.0mm
20:44 62.1 °F /  16.7 °C 51.8 °F /  11 °C 30.1in /  1019.4hPa Calm     69% 0in /  0.0mm
20:49 61.9 °F /  16.6 °C 51.6 °F /  10.9 °C 30.1in /  1019.4hPa Calm     69% 0in /  0.0mm
20:54 61.5 °F /  16.4 °C 51.6 °F /  10.9 °C 30.1in /  1019.6hPa Calm   5.2mph /  8.4km/h 69.9% 0in /  0.0mm
20:59 61.3 °F /  16.3 °C 51.4 °F /  10.8 °C 30.1in /  1019.6hPa Calm   5.2mph /  8.4km/h 70% 0in /  0.0mm
21:04 61.2 °F /  16.2 °C 51.4 °F /  10.8 °C 30.1in /  1019.6hPa SSE 1.8mph /  2.9km/h 5.2mph /  8.4km/h 70.8% 0in /  0.0mm
21:09 61 °F /  16.1 °C 51.4 °F /  10.8 °C 30.1in /  1019.6hPa Sur 2.4mph /  3.9km/h 5mph /  8km/h 71% 0in /  0.0mm
21:14 61 °F /  16.1 °C 51.6 °F /  10.9 °C 30.1in /  1019.6hPa SSO 2.9mph /  4.6km/h 5.2mph /  8.4km/h 71% 0in /  0.0mm
21:19 61.2 °F /  16.2 °C 51.4 °F /  10.8 °C 30.1in /  1019.6hPa SSO 3.1mph /  5km/h 5.8mph /  9.3km/h 70.3% 0in /  0.0mm
21:24 61.3 °F /  16.3 °C 51.4 °F /  10.8 °C 30.1in /  1019.8hPa SSO 3.7mph /  6km/h 6.2mph /  10km/h 70% 0in /  0.0mm
21:29 61.3 °F /  16.3 °C 51.4 °F /  10.8 °C 30.1in /  1019.8hPa SSO 4mph /  6.5km/h 6.2mph /  10km/h 70% 0in /  0.0mm
21:34 61.3 °F /  16.3 °C 51.4 °F /  10.8 °C 30.1in /  1019.8hPa SSO 4mph /  6.5km/h 6mph /  9.7km/h 70% 0in /  0.0mm
21:39 61.3 °F /  16.3 °C 51.4 °F /  10.8 °C 30.1in /  1019.8hPa Sur 4mph /  6.5km/h 6mph /  9.7km/h 70% 0in /  0.0mm
21:44 61.3 °F /  16.3 °C 51.3 °F /  10.7 °C 30.1in /  1019.8hPa Sur 3.2mph /  5.2km/h 5.9mph /  9.5km/h 69.3% 0in /  0.0mm
21:49 61.2 °F /  16.2 °C 51.1 °F /  10.6 °C 30.1in /  1019.8hPa Sur 2.9mph /  4.7km/h 6.2mph /  10km/h 69.5% 0in /  0.0mm
21:54 61.2 °F /  16.2 °C 51.3 °F /  10.7 °C 30.1in /  1019.8hPa Sur 3.7mph /  5.9km/h 6.2mph /  10km/h 70% 0in /  0.0mm
21:59 61 °F /  16.1 °C 51.1 °F /  10.6 °C 30.1in /  1019.8hPa Sur 4mph /  6.5km/h 6mph /  9.7km/h 70% 0in /  0.0mm
22:04 60.6 °F /  15.9 °C 51.1 °F /  10.6 °C 30.1in /  1019.8hPa SSO 4mph /  6.5km/h 5.9mph /  9.5km/h 70.4% 0in /  0.0mm
22:09 60.6 °F /  15.9 °C 51.1 °F /  10.6 °C 30.1in /  1019.8hPa SSO 4mph /  6.5km/h 6.2mph /  10km/h 71% 0in /  0.0mm
22:14 60.4 °F /  15.8 °C 51.1 °F /  10.6 °C 30.1in /  1019.8hPa SSO 4mph /  6.5km/h 6.9mph /  11.1km/h 71% 0in /  0.0mm
22:19 60.4 °F /  15.8 °C 51.1 °F /  10.6 °C 30.1in /  1019.8hPa SSO 4mph /  6.5km/h 7mph /  11.3km/h 71% 0in /  0.0mm
22:24 60.4 °F /  15.8 °C 51.1 °F /  10.6 °C 30.1in /  1019.8hPa Sur 4.2mph /  6.8km/h 7mph /  11.3km/h 71.1% 0in /  0.0mm
22:29 60.3 °F /  15.7 °C 51.1 °F /  10.6 °C 30.1in /  1019.8hPa SSO 4.3mph /  6.9km/h 8.5mph /  13.7km/h 71.7% 0in /  0.0mm
22:34 60.3 °F /  15.7 °C 51.3 °F /  10.7 °C 30.1in /  1019.8hPa SSO 4.6mph /  7.4km/h 9mph /  14.5km/h 72% 0in /  0.0mm
22:39 60.3 °F /  15.7 °C 51.1 °F /  10.6 °C 30.1in /  1019.9hPa SSO 4.7mph /  7.6km/h 9.2mph /  14.8km/h 71.5% 0in /  0.0mm
22:44 60.3 °F /  15.7 °C 50.7 °F /  10.4 °C 30.1in /  1019.9hPa SO 5.6mph /  9km/h 9mph /  14.5km/h 71% 0in /  0.0mm
22:49 60.3 °F /  15.7 °C 50.7 °F /  10.4 °C 30.1in /  1019.9hPa SO 5.9mph /  9.5km/h 7mph /  11.3km/h 71% 0in /  0.0mm
22:54 60.3 °F /  15.7 °C 50.7 °F /  10.4 °C 30.1in /  1019.9hPa SO 4.5mph /  7.3km/h 7mph /  11.3km/h 71% 0in /  0.0mm
22:59 60.3 °F /  15.7 °C 50.7 °F /  10.4 °C 30.1in /  1019.9hPa SO 4mph /  6.5km/h 7mph /  11.3km/h 71% 0in /  0.0mm
23:04 60.3 °F /  15.7 °C 50.7 °F /  10.4 °C 30.1in /  1019.9hPa SO 3.4mph /  5.4km/h 6.2mph /  10km/h 71% 0in /  0.0mm
23:09 60.3 °F /  15.7 °C 50.7 °F /  10.4 °C 30.1in /  1020.0hPa SO 3.1mph /  5km/h 6mph /  9.7km/h 71% 0in /  0.0mm
23:14 60.3 °F /  15.7 °C 50.7 °F /  10.4 °C 30.1in /  1020.0hPa SSO 3.5mph /  5.6km/h 6mph /  9.7km/h 71% 0in /  0.0mm
23:19 60.3 °F /  15.7 °C 50.7 °F /  10.4 °C 30.1in /  1020.0hPa SSO 3.6mph /  5.8km/h 5mph /  8km/h 71% 0in /  0.0mm
23:24 60.3 °F /  15.7 °C 50.7 °F /  10.4 °C 30.1in /  1020.0hPa SSO 2.1mph /  3.3km/h   71% 0in /  0.0mm
23:29 60.1 °F /  15.6 °C 50.7 °F /  10.4 °C 30.1in /  1020.0hPa SSO 1.4mph /  2.2km/h   71.3% 0in /  0.0mm
23:34 59.7 °F /  15.4 °C 50.7 °F /  10.4 °C 30.1in /  1020.0hPa SSO 0.4mph /  0.7km/h   72% 0in /  0.0mm
23:39 59.5 °F /  15.3 °C 50.7 °F /  10.4 °C 30.1in /  1020.1hPa Calm     72.4% 0in /  0.0mm
23:44 59.4 °F /  15.2 °C 50.7 °F /  10.4 °C 30.1in /  1020.1hPa Calm   3.5mph /  5.6km/h 73% 0in /  0.0mm
23:49 59.4 °F /  15.2 °C 50.5 °F /  10.3 °C 30.1in /  1020.1hPa Calm   4.7mph /  7.6km/h 73% 0in /  0.0mm
23:54 59.4 °F /  15.2 °C 50.5 °F /  10.3 °C 30.1in /  1020.1hPa SSE 1.7mph /  2.7km/h 5mph /  8km/h 73% 0in /  0.0mm
23:59 59.4 °F /  15.2 °C 50.7 °F /  10.4 °C 30.1in /  1019.9hPa SSO 2.4mph /  3.9km/h 5mph /  8km/h 73% 0in /  0.0mm
Murcia-Puente Tocinos, España
Compliments of Weather Underground - 3 mb

La estación de MeteoMurcia.com, publica sus datos en los siguientes proyectos:

Weather Underground PWS IMURCIAP2 Meteoclimatic www.awekas.at

W3Counter
Web Analytics